createdAt,value
2022-10-22T00:01:10.521Z,10.9
2022-10-22T00:06:13.286Z,10.5
2022-10-22T00:11:15.671Z,10.9
2022-10-22T00:16:17.928Z,10.1
2022-10-22T00:21:20.349Z,10.9
2022-10-22T00:26:22.781Z,11.1
2022-10-22T00:31:24.792Z,11
2022-10-22T00:36:27.034Z,10.9
2022-10-22T00:41:29.283Z,10.8
2022-10-22T00:46:32.293Z,10.6
2022-10-22T00:51:33.602Z,10.7
2022-10-22T00:56:36.114Z,11.2
2022-10-22T01:01:38.877Z,10.7
2022-10-22T01:06:41.761Z,11.4
2022-10-22T01:11:44.052Z,11
2022-10-22T01:16:46.226Z,10.6
2022-10-22T01:21:49.819Z,10.4
2022-10-22T01:26:52.148Z,10.7
2022-10-22T01:31:54.467Z,10.8
2022-10-22T01:36:57.466Z,10.2
2022-10-22T01:41:59.633Z,10.7
2022-10-22T01:47:01.864Z,10.7
2022-10-22T01:52:04.208Z,10.7
2022-10-22T01:57:06.692Z,11.1
2022-10-22T02:02:08.676Z,11.8
2022-10-22T02:07:11.070Z,11.5
2022-10-22T02:12:13.246Z,11.7
2022-10-22T02:17:15.625Z,13.8
2022-10-22T02:22:17.902Z,13.8
2022-10-22T02:27:25.989Z,13.9
2022-10-22T02:32:29.794Z,14
2022-10-22T02:37:32.131Z,13.9
2022-10-22T02:42:37.628Z,13.9
2022-10-22T02:47:41.873Z,14
2022-10-22T02:52:44.976Z,14.1
2022-10-22T02:57:47.731Z,14.2
2022-10-22T03:02:49.765Z,14.3
2022-10-22T03:07:52.167Z,14.4
2022-10-22T03:12:54.712Z,13.9
2022-10-22T03:17:56.991Z,14.1
2022-10-22T03:22:59.864Z,14.3
2022-10-22T03:28:02.294Z,14.7
2022-10-22T03:33:04.536Z,13.9
2022-10-22T03:38:06.740Z,14.8
2022-10-22T03:43:08.861Z,13.9
2022-10-22T03:48:10.911Z,13.3
2022-10-22T03:53:13.433Z,13.8
2022-10-22T03:58:15.866Z,19.6
2022-10-22T04:03:16.240Z,13.6
2022-10-22T04:08:18.990Z,13.8
2022-10-22T04:13:21.476Z,13.8
2022-10-22T04:18:23.589Z,14.1
2022-10-22T04:23:25.965Z,14.3
2022-10-22T04:28:28.150Z,13.9
2022-10-22T04:33:30.377Z,13.7
2022-10-22T04:38:32.410Z,14
2022-10-22T04:43:35.020Z,13.8
2022-10-22T04:48:37.202Z,13.9
2022-10-22T04:53:39.726Z,14
2022-10-22T04:58:42.108Z,14.2
2022-10-22T05:03:44.283Z,14
2022-10-22T05:08:47.105Z,14.6
2022-10-22T05:13:49.728Z,14.2
2022-10-22T05:18:51.696Z,14.3
2022-10-22T05:23:55.124Z,14.4
2022-10-22T05:28:57.300Z,13.4
2022-10-22T05:33:59.595Z,14.5
2022-10-22T05:39:01.570Z,13.5
2022-10-22T05:44:03.576Z,13.3
2022-10-22T05:49:05.688Z,13
2022-10-22T05:54:08.266Z,12.9
2022-10-22T05:59:09.238Z,13.1
2022-10-22T06:04:11.557Z,12.7
2022-10-22T06:09:14.045Z,12.8
2022-10-22T06:14:16.518Z,12.9
2022-10-22T06:19:18.565Z,13
2022-10-22T06:24:20.610Z,13.9
2022-10-22T06:29:22.648Z,24.6
2022-10-22T06:34:24.706Z,15
2022-10-22T06:39:27.022Z,13.6
2022-10-22T06:44:29.091Z,13.8
2022-10-22T06:49:31.230Z,12.8
2022-10-22T06:54:33.775Z,12.3
2022-10-22T06:59:35.807Z,14.8
2022-10-22T07:04:38.243Z,12.5
2022-10-22T07:09:41.168Z,20.7
2022-10-22T07:14:43.548Z,12.2
2022-10-22T07:19:51.254Z,11.4
2022-10-22T07:24:54.470Z,11.5
2022-10-22T07:29:56.622Z,10.8
2022-10-22T07:34:58.987Z,10
2022-10-22T07:40:04.984Z,9.8
2022-10-22T07:45:07.252Z,11
2022-10-22T07:50:12.291Z,11.5
2022-10-22T07:55:14.595Z,10.4
2022-10-22T08:00:17.285Z,8.7
2022-10-22T08:05:26.053Z,9.4
2022-10-22T08:10:28.242Z,8.4
2022-10-22T08:15:30.349Z,8.4
2022-10-22T08:20:33.765Z,8.1
2022-10-22T08:25:35.795Z,7.8
2022-10-22T08:30:37.903Z,7.6
2022-10-22T08:35:40.658Z,7.2
2022-10-22T08:40:42.866Z,7.6
2022-10-22T08:45:45.289Z,6.9
2022-10-22T08:50:47.787Z,6.7
2022-10-22T08:55:48.528Z,6.9
2022-10-22T09:00:51.232Z,6.5
2022-10-22T09:05:53.613Z,5.8
2022-10-22T09:10:56.682Z,5.6
2022-10-22T09:15:58.806Z,6.5
2022-10-22T09:21:01.638Z,6.9
2022-10-22T09:26:04.077Z,6.3
2022-10-22T09:31:06.404Z,6.3
2022-10-22T09:36:08.813Z,6.6
2022-10-22T09:41:11.363Z,6.6
2022-10-22T09:46:13.376Z,6.3
2022-10-22T09:51:15.553Z,5.8
2022-10-22T09:56:17.749Z,5.5
2022-10-22T10:01:20.029Z,5.1
2022-10-22T10:06:22.484Z,7.5
2022-10-22T10:11:29.717Z,4.3
2022-10-22T10:16:32.227Z,3.9
2022-10-22T10:21:34.234Z,3.2
2022-10-22T10:26:36.609Z,3.3
2022-10-22T10:31:38.853Z,5.1
2022-10-22T10:36:41.076Z,3.2
2022-10-22T10:41:43.374Z,2.9
2022-10-22T10:46:45.650Z,2.8
2022-10-22T10:51:47.846Z,2.5
2022-10-22T10:56:50.040Z,2.4
2022-10-22T11:01:52.190Z,2.5
2022-10-22T11:07:10.600Z,2.7
2022-10-22T11:11:55.821Z,13.3
2022-10-22T11:16:58.185Z,2.9
2022-10-22T11:22:00.441Z,2.4
2022-10-22T11:27:02.630Z,2.5
2022-10-22T11:32:05.601Z,2.4
2022-10-22T11:37:08.075Z,2.2
2022-10-22T11:42:10.427Z,2.1
2022-10-22T11:47:12.566Z,2
2022-10-22T11:52:14.898Z,2.1
2022-10-22T11:57:17.131Z,2.1
2022-10-22T12:02:19.298Z,2.1
2022-10-22T12:07:21.435Z,1.8
2022-10-22T12:12:23.493Z,2
2022-10-22T12:17:25.704Z,3.2
2022-10-22T12:22:27.665Z,1.9
2022-10-22T12:27:30.960Z,2.3
2022-10-22T12:32:32.909Z,2.4
2022-10-22T12:37:34.871Z,3.6
2022-10-22T12:42:37.479Z,2.4
2022-10-22T12:47:40.404Z,2.8
2022-10-22T12:52:44.062Z,10.6
2022-10-22T12:57:46.485Z,2.9
2022-10-22T13:02:49.975Z,3.1
2022-10-22T13:07:52.463Z,3.1
2022-10-22T13:12:54.537Z,2.9
2022-10-22T13:17:56.493Z,3.4
2022-10-22T13:22:58.516Z,3.9
2022-10-22T13:28:01.447Z,3.4
2022-10-22T13:33:03.526Z,3.9
2022-10-22T13:38:05.733Z,3.5
2022-10-22T13:43:07.729Z,4.6
2022-10-22T13:48:09.864Z,3.5
2022-10-22T13:53:13.719Z,3.6
2022-10-22T13:58:20.499Z,3.8
2022-10-22T14:03:22.779Z,4.8
2022-10-22T14:08:24.937Z,4.5
2022-10-22T14:13:27.317Z,5
2022-10-22T14:18:29.843Z,5
2022-10-22T14:23:33.574Z,4.2
2022-10-22T14:29:08.586Z,3.9
2022-10-22T14:33:43.334Z,4.1
2022-10-22T14:38:45.543Z,6.5
2022-10-22T14:43:47.755Z,5.1
2022-10-22T14:48:49.884Z,4.2
2022-10-22T14:53:51.970Z,6.2
2022-10-22T14:58:52.446Z,4.9
2022-10-22T15:03:55.050Z,4.4
2022-10-22T15:08:57.474Z,4.3
2022-10-22T15:13:59.593Z,4.8
2022-10-22T15:19:01.530Z,4.5
2022-10-22T15:24:03.466Z,4.7
2022-10-22T15:29:05.520Z,4.9
2022-10-22T15:34:07.401Z,5.7
2022-10-22T15:39:10.509Z,5.6
2022-10-22T15:44:12.849Z,6.3
2022-10-22T15:49:15.070Z,7.4
2022-10-22T15:54:17.179Z,8
2022-10-22T15:59:19.187Z,7.9
2022-10-22T16:04:21.372Z,7.6
2022-10-22T16:09:23.623Z,7.5
2022-10-22T16:14:25.623Z,15.2
2022-10-22T16:19:27.583Z,8
2022-10-22T16:24:29.550Z,9.6
2022-10-22T16:29:31.628Z,8.2
2022-10-22T16:34:33.792Z,7.8
2022-10-22T16:39:35.815Z,7.9
2022-10-22T16:44:38.722Z,7.8
2022-10-22T16:49:40.778Z,8.4
2022-10-22T16:54:42.834Z,8.7
2022-10-22T16:59:45.591Z,9.3
2022-10-22T17:04:47.732Z,9.3
2022-10-22T17:09:49.988Z,9.4
2022-10-22T17:14:52.017Z,10.8
2022-10-22T17:19:53.966Z,10.6
2022-10-22T17:24:56.002Z,10.4
2022-10-22T17:29:58.442Z,25.3
2022-10-22T17:35:01.386Z,12.3
2022-10-22T17:40:03.408Z,12.8
2022-10-22T17:45:05.425Z,13.5
2022-10-22T17:50:07.443Z,14.7
2022-10-22T17:55:09.560Z,14.6
2022-10-22T18:00:11.988Z,14.9
2022-10-22T18:05:14.302Z,14.5
2022-10-22T18:10:16.735Z,14.5
2022-10-22T18:15:18.903Z,14.4
2022-10-22T18:20:20.943Z,15.1
2022-10-22T18:25:23.008Z,16.4
2022-10-22T18:30:25.018Z,16.4
2022-10-22T18:35:26.984Z,16.5
2022-10-22T18:40:28.911Z,16.9
2022-10-22T18:45:30.991Z,16.7
2022-10-22T18:55:34.850Z,18.1
2022-10-22T19:00:36.874Z,17.7
2022-10-22T19:05:39.163Z,17.9
2022-10-22T19:10:41.381Z,19.1
2022-10-22T19:15:43.770Z,18.6
2022-10-22T19:20:46.016Z,19.5
2022-10-22T19:25:47.911Z,19.6
2022-10-22T19:30:49.899Z,20.1
2022-10-22T19:35:52.064Z,20.7
2022-10-22T19:40:54.032Z,21.4
2022-10-22T19:45:55.977Z,21.1
2022-10-22T19:51:02.065Z,20.8
2022-10-22T19:56:04.439Z,21.7
2022-10-22T20:01:07.216Z,23.1
2022-10-22T20:06:11.395Z,22.8
2022-10-22T20:11:15.826Z,37.5
2022-10-22T20:16:24.272Z,23
2022-10-22T20:36:47.030Z,20.6
2022-10-22T20:41:39.520Z,19.5
2022-10-22T21:02:10.655Z,17.4
2022-10-22T21:06:57.698Z,16.9
2022-10-22T21:17:00.001Z,17
2022-10-22T21:22:08.451Z,16.6
2022-10-22T21:27:05.351Z,17.1
2022-10-22T21:32:14.390Z,16.8
2022-10-22T21:37:13.798Z,17
2022-10-22T21:42:16.181Z,18.2
2022-10-22T21:47:20.085Z,17.8
2022-10-22T21:52:22.031Z,17.3
2022-10-22T21:57:24.086Z,16.4
2022-10-22T22:02:26.101Z,17.7
2022-10-22T22:07:28.814Z,19.1
2022-10-22T22:12:31.519Z,19.9
2022-10-22T22:17:34.602Z,18
2022-10-22T22:22:36.750Z,17.6
2022-10-22T22:27:39.533Z,16.8
2022-10-22T22:32:43.136Z,16.7
2022-10-22T22:37:45.631Z,17.6
2022-10-22T22:42:47.594Z,20.6
2022-10-22T22:47:49.712Z,16.6
2022-10-22T22:52:51.761Z,16.3
2022-10-22T22:57:53.882Z,15.9
2022-10-22T23:02:56.095Z,16.5
2022-10-22T23:07:58.098Z,15
2022-10-22T23:13:00.254Z,14.7
2022-10-22T23:18:02.437Z,16.7
2022-10-22T23:23:04.721Z,20.3
2022-10-22T23:28:06.696Z,23.2
2022-10-22T23:33:08.899Z,24.5
2022-10-22T23:38:11.137Z,26.3
2022-10-22T23:43:13.381Z,25.9
2022-10-22T23:48:15.896Z,25.1
2022-10-22T23:53:18.198Z,23.9
2022-10-22T23:58:20.477Z,23.5
